Time;durP1;ratioP1;P1;durP2;ratioP2;P2;SDS_P1;SDS_P2;PMS_P1;PMS_P2;Temp;Humidity;BMP_temperature;BMP_pressure;BME280_temperature;BME280_humidity;BME280_pressure;Samples;Min_cycle;Max_cycle;Signal;HPM_P1;HPM_P2
2022/07/02 00:02:17;;;;;;;11.98;7.85;;;;;;;14.72;53.12;100091.06;5075092;27;20034;-75
2022/07/02 00:04:52;;;;;;;16.65;7.30;;;;;;;14.71;53.42;100093.88;5089096;27;20895;-75
2022/07/02 00:07:17;;;;;;;14.23;6.68;;;;;;;14.66;53.04;100088.03;5078893;27;20039;-74
2022/07/02 00:09:42;;;;;;;19.98;7.85;;;;;;;14.62;52.98;100091.94;5090595;27;20035;-78
2022/07/02 00:12:09;;;;;;;14.98;6.95;;;;;;;14.59;52.84;100095.72;5074445;27;20055;-73
2022/07/02 00:14:35;;;;;;;14.82;7.78;;;;;;;14.55;52.72;100107.69;5055623;27;20119;-74
2022/07/02 00:17:00;;;;;;;22.00;6.78;;;;;;;14.55;52.38;100102.31;5109354;27;20134;-74
2022/07/02 00:19:26;;;;;;;20.38;7.72;;;;;;;14.53;52.62;100099.75;5097927;27;20042;-71
2022/07/02 00:21:53;;;;;;;19.27;8.65;;;;;;;14.52;52.81;100107.94;5097030;27;20039;-73
2022/07/02 00:24:18;;;;;;;22.15;7.43;;;;;;;14.51;53.05;100098.19;5073216;27;20122;-72
2022/07/02 00:26:53;;;;;;;13.48;7.00;;;;;;;14.53;51.54;100104.28;5096391;27;20125;-70
2022/07/02 00:29:36;;;;;;;17.50;7.63;;;;;;;14.57;52.34;100102.19;5100321;27;20065;-73
2022/07/02 00:32:03;;;;;;;23.25;7.38;;;;;;;14.51;52.92;100111.59;5118464;27;20053;-75
2022/07/02 00:34:30;;;;;;;20.55;8.88;;;;;;;14.46;52.85;100109.25;5118486;27;20405;-72
2022/07/02 00:36:56;;;;;;;16.33;7.40;;;;;;;14.45;53.45;100099.50;5117860;27;20046;-70
2022/07/02 00:39:21;;;;;;;18.30;7.20;;;;;;;14.44;53.95;100105.03;5064938;28;20853;-73
2022/07/02 00:41:47;;;;;;;18.45;8.27;;;;;;;14.44;54.08;100102.34;5078763;28;20468;-73
2022/07/02 00:44:13;;;;;;;21.17;9.07;;;;;;;14.43;54.29;100114.03;5061675;28;20099;-71
2022/07/02 00:46:38;;;;;;;21.27;9.52;;;;;;;14.42;54.65;100115.00;5078089;28;20078;-72
2022/07/02 00:49:03;;;;;;;16.90;8.88;;;;;;;14.40;54.55;100112.44;5098143;28;20067;-73
2022/07/02 00:51:28;;;;;;;22.95;7.43;;;;;;;14.38;53.67;100111.69;5077115;28;20074;-71
2022/07/02 00:53:53;;;;;;;14.88;6.78;;;;;;;14.36;53.79;100118.13;5097174;28;20047;-72
2022/07/02 00:56:18;;;;;;;18.17;7.65;;;;;;;14.33;53.63;100124.63;5077521;28;20462;-69
2022/07/02 00:58:43;;;;;;;16.88;7.10;;;;;;;14.30;53.96;100127.53;5095811;28;20404;-70
2022/07/02 01:01:08;;;;;;;17.25;7.63;;;;;;;14.29;53.91;100127.66;5077249;28;20086;-70
2022/07/02 01:03:35;;;;;;;15.05;6.95;;;;;;;14.28;54.25;100120.59;5077349;28;20113;-75
2022/07/02 01:06:00;;;;;;;20.95;8.52;;;;;;;14.26;53.87;100125.22;5063005;28;20183;-73
2022/07/02 01:11:10;;;;;;;17.45;7.25;;;;;;;14.22;54.11;100124.59;5098923;27;20169;-76
2022/07/02 01:13:34;;;;;;;17.98;6.93;;;;;;;14.18;54.54;100125.81;5082677;27;20035;-76
2022/07/02 01:16:00;;;;;;;17.85;7.78;;;;;;;14.14;54.51;100135.94;5101435;27;20062;-74
2022/07/02 01:18:25;;;;;;;20.90;8.25;;;;;;;14.12;54.75;100132.50;5100500;27;20046;-71
2022/07/02 01:20:50;;;;;;;13.60;6.93;;;;;;;14.13;54.55;100128.84;5099240;27;20035;-69
2022/07/02 01:23:15;;;;;;;16.17;6.65;;;;;;;14.13;54.90;100128.00;5106563;27;20039;-75
2022/07/02 01:25:40;;;;;;;19.85;8.35;;;;;;;14.13;55.58;100142.25;5082612;27;20038;-75
2022/07/02 01:28:05;;;;;;;15.23;7.88;;;;;;;14.14;55.65;100133.25;5110962;27;20039;-74
2022/07/02 01:30:30;;;;;;;18.88;8.50;;;;;;;14.15;54.83;100134.97;5096571;27;20023;-75
2022/07/02 01:32:55;;;;;;;26.02;8.30;;;;;;;14.15;55.36;100137.63;5104654;27;20054;-74
2022/07/02 01:35:20;;;;;;;23.52;8.65;;;;;;;14.20;54.97;100139.13;5123103;27;20042;-75
2022/07/02 01:37:45;;;;;;;12.60;6.93;;;;;;;14.21;55.62;100144.34;5103127;27;20047;-75
2022/07/02 01:40:10;;;;;;;12.80;6.85;;;;;;;14.22;55.48;100138.00;5057094;28;20048;-77
2022/07/02 01:42:36;;;;;;;18.90;7.13;;;;;;;14.24;54.80;100146.78;5041190;28;20131;-74
2022/07/02 01:45:01;;;;;;;16.58;7.80;;;;;;;14.26;54.59;100149.34;5058572;28;20054;-71
2022/07/02 01:47:27;;;;;;;17.05;6.78;;;;;;;14.28;54.46;100147.41;5058165;28;20048;-72
2022/07/02 01:49:52;;;;;;;13.65;7.57;;;;;;;14.31;54.67;100147.16;5040861;28;20048;-72
2022/07/02 01:52:17;;;;;;;20.02;7.10;;;;;;;14.34;55.30;100152.25;5041099;28;20048;-75
2022/07/02 01:54:44;;;;;;;15.27;7.60;;;;;;;14.38;54.68;100157.28;5057329;28;20048;-72
2022/07/02 01:57:09;;;;;;;18.55;7.68;;;;;;;14.41;54.65;100167.81;5055737;28;20564;-73
2022/07/02 01:59:34;;;;;;;18.15;7.00;;;;;;;14.46;54.90;100172.78;5038402;28;20510;-71
2022/07/02 02:01:59;;;;;;;18.63;6.95;;;;;;;14.50;55.10;100169.75;5057589;28;20050;-72
2022/07/02 02:04:24;;;;;;;17.15;7.35;;;;;;;14.55;54.76;100161.34;5059110;28;20036;-71
2022/07/02 02:06:49;;;;;;;13.90;6.85;;;;;;;14.60;54.47;100155.59;5024853;28;20138;-71
2022/07/02 02:09:14;;;;;;;18.00;7.47;;;;;;;14.64;54.09;100160.63;5025992;28;20035;-73
2022/07/02 02:11:38;;;;;;;25.48;6.68;;;;;;;14.69;53.80;100168.28;5117605;27;20054;-69
2022/07/02 02:14:03;;;;;;;18.33;7.57;;;;;;;14.75;53.53;100173.16;5129326;27;20096;-66
2022/07/02 02:16:30;;;;;;;12.52;6.97;;;;;;;14.84;53.31;100183.16;5118449;27;20038;-72
2022/07/02 02:18:56;;;;;;;16.35;8.10;;;;;;;14.93;52.48;100170.81;5126487;27;20047;-72
2022/07/02 02:21:24;;;;;;;20.02;7.00;;;;;;;15.00;52.76;100174.72;5124163;27;20047;-71
2022/07/02 02:23:49;;;;;;;14.05;7.20;;;;;;;15.05;52.45;100165.31;5139509;27;20023;-70
2022/07/02 02:26:14;;;;;;;12.80;7.22;;;;;;;15.09;53.05;100166.78;5083826;27;20042;-68
2022/07/02 02:28:38;;;;;;;18.63;8.50;;;;;;;15.16;53.29;100161.75;5103495;27;20145;-68
2022/07/02 02:31:04;;;;;;;14.07;6.82;;;;;;;15.23;53.21;100171.88;5119582;27;20042;-71
2022/07/02 02:33:29;;;;;;;16.83;7.25;;;;;;;15.30;52.54;100172.22;5122132;27;20046;-71
2022/07/02 02:35:54;;;;;;;11.73;6.18;;;;;;;15.36;52.14;100169.00;5085217;27;20041;-70
2022/07/02 02:38:19;;;;;;;11.73;6.35;;;;;;;15.46;51.65;100166.44;5119038;27;20046;-72
2022/07/02 02:40:44;;;;;;;15.88;7.53;;;;;;;15.55;51.50;100169.22;5118282;27;20042;-71
2022/07/02 02:43:09;;;;;;;14.75;7.38;;;;;;;15.65;51.21;100169.31;5119447;27;20102;-66
2022/07/02 02:45:34;;;;;;;11.35;7.32;;;;;;;15.72;51.10;100175.00;5128440;27;20576;-70
2022/07/02 02:47:59;;;;;;;10.50;6.40;;;;;;;15.75;50.56;100181.00;5119937;27;20464;-71
2022/07/02 02:50:23;;;;;;;11.68;6.88;;;;;;;15.78;50.40;100169.13;5100710;27;20129;-66
2022/07/02 02:52:48;;;;;;;13.65;7.25;;;;;;;15.82;49.85;100173.25;5117967;27;20046;-67
2022/07/02 02:55:13;;;;;;;15.32;6.82;;;;;;;15.87;50.58;100168.34;5098919;27;20042;-69
2022/07/02 02:57:38;;;;;;;16.00;7.80;;;;;;;15.95;49.63;100168.53;5114657;27;20042;-71
2022/07/02 03:00:03;;;;;;;16.60;7.57;;;;;;;16.05;50.26;100171.28;5078950;27;20096;-67
2022/07/02 03:02:28;;;;;;;13.30;7.03;;;;;;;16.19;48.59;100165.56;5079184;27;20049;-69
2022/07/02 03:04:53;;;;;;;13.13;6.72;;;;;;;16.32;48.66;100166.22;5097063;27;20031;-70
2022/07/02 03:07:18;;;;;;;12.48;7.32;;;;;;;16.44;48.52;100153.53;5101424;27;20043;-70
2022/07/02 03:09:42;;;;;;;15.23;7.03;;;;;;;16.56;48.49;100156.00;5072170;27;20035;-71
2022/07/02 03:12:11;;;;;;;20.85;7.88;;;;;;;16.68;47.83;100167.56;5108112;27;20054;-70
2022/07/02 03:14:35;;;;;;;13.48;7.68;;;;;;;16.81;47.80;100164.63;5106090;27;20497;-70
2022/07/02 03:17:00;;;;;;;14.13;7.13;;;;;;;16.94;47.03;100166.06;5088086;27;20477;-71
2022/07/02 03:19:25;;;;;;;14.40;7.35;;;;;;;17.09;47.29;100157.63;5108191;27;20443;-70
2022/07/02 03:21:50;;;;;;;18.30;6.68;;;;;;;17.25;46.66;100153.41;5105702;27;20043;-71
2022/07/02 03:24:15;;;;;;;12.23;7.05;;;;;;;17.44;46.75;100166.03;5089750;27;20031;-70
2022/07/02 03:26:40;;;;;;;24.58;7.20;;;;;;;17.60;45.92;100169.03;5115942;27;20046;-72
2022/07/02 03:29:05;;;;;;;15.48;7.63;;;;;;;17.72;45.15;100178.69;5105330;27;20037;-72
2022/07/02 03:31:30;;;;;;;13.88;7.40;;;;;;;17.76;44.61;100177.44;5089998;27;20038;-73
2022/07/02 03:33:54;;;;;;;13.85;6.93;;;;;;;17.76;44.36;100180.13;5110500;27;20031;-72
2022/07/02 03:36:19;;;;;;;13.32;7.65;;;;;;;17.82;44.74;100183.25;5090093;27;20141;-70
2022/07/02 03:38:44;;;;;;;12.90;6.85;;;;;;;17.93;44.27;100175.88;5086343;27;20115;-68
2022/07/02 03:41:09;;;;;;;15.00;7.43;;;;;;;18.06;44.09;100181.78;5089353;27;20134;-69
2022/07/02 03:43:35;;;;;;;15.40;8.45;;;;;;;18.19;44.02;100188.72;5105201;27;20027;-69
2022/07/02 03:45:59;;;;;;;20.23;9.27;;;;;;;18.37;43.72;100181.59;5095971;27;20045;-69
2022/07/02 03:48:24;;;;;;;16.00;7.47;;;;;;;18.54;43.03;100180.84;5098554;27;20043;-70
2022/07/02 03:50:49;;;;;;;13.57;7.25;;;;;;;18.64;42.71;100178.13;5117053;27;20042;-73
2022/07/02 03:53:13;;;;;;;17.40;7.43;;;;;;;18.71;42.52;100187.34;5098024;27;20091;-69
2022/07/02 03:55:38;;;;;;;12.77;7.57;;;;;;;18.84;42.44;100198.69;5098285;27;20049;-71
2022/07/02 03:58:03;;;;;;;10.63;6.93;;;;;;;18.98;42.10;100187.34;5098014;27;20113;-72
2022/07/02 04:00:28;;;;;;;16.45;7.47;;;;;;;19.12;41.69;100188.72;5116650;27;20042;-72
2022/07/02 04:02:53;;;;;;;14.32;6.53;;;;;;;19.28;41.23;100191.59;5116528;27;20127;-70
2022/07/02 04:05:18;;;;;;;17.02;6.57;;;;;;;19.42;40.99;100195.63;5097992;27;20042;-73
2022/07/02 04:07:43;;;;;;;11.00;6.85;;;;;;;19.54;40.43;100199.84;5116749;27;20077;-72
2022/07/02 04:10:08;;;;;;;26.45;8.63;;;;;;;19.60;40.02;100190.28;5080709;27;20137;-73
2022/07/02 04:12:34;;;;;;;13.02;6.30;;;;;;;19.76;39.82;100193.13;5096607;27;20558;-71
2022/07/02 04:14:59;;;;;;;20.27;7.07;;;;;;;19.90;39.86;100188.03;5077697;28;20059;-75
2022/07/02 04:17:24;;;;;;;11.48;6.75;;;;;;;20.06;39.84;100189.19;5100371;27;20042;-72
2022/07/02 04:19:49;;;;;;;14.23;7.47;;;;;;;20.23;38.43;100188.28;5082622;27;20045;-72
2022/07/02 04:22:13;;;;;;;23.13;6.72;;;;;;;20.39;38.66;100196.56;5079316;28;20039;-72
2022/07/02 04:24:38;;;;;;;20.05;7.13;;;;;;;20.57;37.91;100191.94;5100151;27;20043;-73
2022/07/02 04:27:03;;;;;;;15.57;5.82;;;;;;;20.74;37.42;100190.16;5102054;27;20043;-71
2022/07/02 04:29:28;;;;;;;14.45;6.03;;;;;;;20.94;37.21;100188.06;5084153;28;20171;-72
2022/07/02 04:31:53;;;;;;;12.95;5.85;;;;;;;21.08;36.81;100186.59;5095847;28;20065;-71
2022/07/02 04:34:18;;;;;;;9.73;5.75;;;;;;;21.26;36.28;100182.78;5095228;28;20125;-71
2022/07/02 04:36:42;;;;;;;17.38;6.22;;;;;;;21.48;35.86;100175.03;5095473;28;20050;-70
2022/07/02 04:39:07;;;;;;;12.45;6.00;;;;;;;21.64;35.47;100180.50;5095628;28;20134;-71
2022/07/02 04:41:32;;;;;;;12.05;5.72;;;;;;;21.88;34.42;100183.25;5060365;28;20104;-73
2022/07/02 04:43:58;;;;;;;12.73;5.65;;;;;;;22.16;34.30;100185.63;5077677;27;20039;-72
2022/07/02 04:46:23;;;;;;;13.05;5.38;;;;;;;22.45;33.87;100180.50;5081195;27;20082;-70
2022/07/02 04:48:47;;;;;;;9.65;4.88;;;;;;;22.74;33.33;100175.31;5099947;27;20123;-72
2022/07/02 04:51:12;;;;;;;6.32;4.72;;;;;;;23.09;32.30;100167.75;5090963;27;20455;-73
2022/07/02 04:53:37;;;;;;;11.25;5.00;;;;;;;23.42;32.22;100162.97;5099959;27;20045;-71
2022/07/02 04:56:02;;;;;;;11.25;5.32;;;;;;;23.81;31.05;100171.09;5064441;27;20043;-72
2022/07/02 04:58:26;;;;;;;7.97;4.95;;;;;;;24.16;30.60;100162.25;5099380;27;20527;-72
2022/07/02 05:00:51;;;;;;;12.23;5.30;;;;;;;24.55;29.80;100166.66;5063895;27;20043;-71
2022/07/02 05:03:16;;;;;;;15.50;5.20;;;;;;;24.79;28.96;100162.81;5080603;27;20079;-74
2022/07/02 05:05:41;;;;;;;6.88;4.68;;;;;;;25.12;28.98;100168.75;5098797;27;20397;-73
2022/07/02 05:08:06;;;;;;;9.60;5.05;;;;;;;25.50;28.61;100173.00;5080748;27;20047;-71
2022/07/02 05:10:30;;;;;;;8.60;4.72;;;;;;;25.89;27.69;100169.00;5080610;27;20047;-71
2022/07/02 05:12:55;;;;;;;9.63;4.63;;;;;;;26.19;27.41;100166.94;5098765;27;20485;-70
2022/07/02 05:15:20;;;;;;;9.13;5.93;;;;;;;26.46;27.65;100163.41;5114235;27;20058;-70
2022/07/02 05:17:45;;;;;;;8.93;4.70;;;;;;;26.70;26.55;100170.28;5121511;27;20046;-71
2022/07/02 05:20:10;;;;;;;8.63;5.03;;;;;;;26.92;26.41;100165.56;5119987;27;20071;-70
2022/07/02 05:22:35;;;;;;;9.25;5.20;;;;;;;27.13;26.63;100165.50;5119514;27;20091;-71
2022/07/02 05:24:59;;;;;;;8.80;5.30;;;;;;;27.33;25.92;100160.09;5101220;27;20044;-71
2022/07/02 05:27:24;;;;;;;7.57;4.57;;;;;;;27.55;26.23;100158.91;5119170;27;20043;-70
2022/07/02 05:29:49;;;;;;;10.57;5.68;;;;;;;27.78;25.61;100164.88;5119601;27;20050;-72
2022/07/02 05:32:14;;;;;;;9.40;5.10;;;;;;;28.02;24.97;100165.31;5101792;27;20047;-71
2022/07/02 05:34:39;;;;;;;10.07;5.70;;;;;;;28.12;24.37;100163.00;5084129;27;20038;-70
2022/07/02 05:37:04;;;;;;;6.57;5.30;;;;;;;28.23;24.89;100161.53;5083175;27;20038;-71
2022/07/02 05:39:29;;;;;;;7.43;5.00;;;;;;;28.38;23.58;100160.28;5119177;27;20094;-71
2022/07/02 05:41:55;;;;;;;8.38;5.40;;;;;;;28.50;23.30;100155.84;5100601;27;20046;-70
2022/07/02 05:44:20;;;;;;;7.10;4.70;;;;;;;28.64;24.43;100158.56;5062570;27;20042;-70
2022/07/02 05:46:44;;;;;;;7.70;5.28;;;;;;;28.80;24.20;100153.47;5098044;27;20043;-71
2022/07/02 05:49:09;;;;;;;10.70;5.53;;;;;;;28.94;23.55;100148.78;5080355;27;20118;-71
2022/07/02 05:51:34;;;;;;;16.95;6.35;;;;;;;29.13;23.17;100150.59;5098792;27;20043;-70
2022/07/02 05:53:59;;;;;;;9.85;5.53;;;;;;;29.38;23.20;100155.38;5019474;28;20411;-70
2022/07/02 05:56:24;;;;;;;9.25;5.78;;;;;;;29.60;23.41;100159.50;5001791;28;20056;-71
2022/07/02 05:58:48;;;;;;;13.00;5.70;;;;;;;29.92;22.67;100158.41;5003979;28;20151;-72
2022/07/02 06:01:13;;;;;;;6.93;5.15;;;;;;;30.35;21.48;100165.09;5037484;28;20098;-70
2022/07/02 06:03:38;;;;;;;7.45;4.97;;;;;;;30.89;20.46;100162.44;5040765;28;20097;-70
2022/07/02 06:08:46;;;;;;;5.45;4.63;;;;;;;32.17;18.61;100150.31;5037512;28;20511;-71
2022/07/02 06:11:11;;;;;;;9.48;6.35;;;;;;;32.76;18.39;100158.41;5036095;28;20047;-71
2022/07/02 06:13:35;;;;;;;7.50;5.25;;;;;;;33.25;17.86;100142.34;5002239;28;20103;-70
2022/07/02 06:16:00;;;;;;;11.07;5.63;;;;;;;33.70;17.49;100141.56;5039886;28;20056;-70
2022/07/02 06:18:26;;;;;;;12.50;5.55;;;;;;;34.11;16.76;100138.44;5059770;28;20044;-71
2022/07/02 06:20:51;;;;;;;8.63;5.72;;;;;;;34.66;16.71;100148.72;5059810;28;20039;-71
2022/07/02 06:23:19;;;;;;;7.47;6.07;;;;;;;35.15;15.85;100151.63;5046735;28;20188;-70
2022/07/02 06:25:44;;;;;;;7.00;5.88;;;;;;;35.65;15.70;100141.16;5075038;27;20058;-72
2022/07/02 06:28:09;;;;;;;7.63;5.40;;;;;;;36.13;15.63;100150.47;5081788;27;20031;-72
2022/07/02 06:30:34;;;;;;;8.80;5.53;;;;;;;36.47;15.66;100151.03;5085544;27;20066;-69
2022/07/02 06:32:58;;;;;;;6.95;5.10;;;;;;;36.73;14.84;100141.81;5101760;27;20532;-71
2022/07/02 06:35:23;;;;;;;7.35;5.57;;;;;;;37.04;14.76;100151.13;5106761;27;20058;-71
2022/07/02 06:37:49;;;;;;;6.63;5.22;;;;;;;37.27;14.17;100154.59;5064095;27;20545;-70
2022/07/02 06:40:14;;;;;;;7.38;5.57;;;;;;;37.41;13.83;100139.91;5098693;27;20050;-69
2022/07/02 06:42:38;;;;;;;8.68;5.70;;;;;;;37.63;13.80;100131.34;5078703;27;20039;-70
2022/07/02 06:45:04;;;;;;;10.52;5.72;;;;;;;37.91;13.58;100132.78;5093164;27;20053;-71
2022/07/02 06:47:30;;;;;;;7.28;5.78;;;;;;;38.25;13.73;100140.59;5099575;27;20046;-70
2022/07/02 06:49:57;;;;;;;8.52;6.05;;;;;;;38.68;12.89;100144.75;5081973;27;20038;-71
2022/07/02 06:52:22;;;;;;;11.10;5.80;;;;;;;39.02;12.48;100139.38;5098714;27;20042;-71
2022/07/02 06:54:47;;;;;;;9.85;6.55;;;;;;;39.26;12.72;100133.97;5103072;27;20059;-73
2022/07/02 06:57:12;;;;;;;11.13;6.03;;;;;;;39.61;12.32;100139.38;5101531;27;20058;-72
2022/07/02 06:59:38;;;;;;;12.63;6.10;;;;;;;40.13;12.21;100143.44;5117909;27;20042;-71
2022/07/02 07:02:04;;;;;;;17.27;7.85;;;;;;;40.67;12.45;100145.19;5082056;27;20039;-70
2022/07/02 07:04:29;;;;;;;7.72;6.93;;;;;;;40.73;11.80;100156.06;5101796;27;20050;-72
2022/07/02 07:06:55;;;;;;;8.63;6.15;;;;;;;41.18;11.41;100149.13;5100929;27;20043;-72
2022/07/02 07:09:20;;;;;;;34.67;11.73;;;;;;;41.70;11.74;100150.06;5117518;27;20050;-72
2022/07/02 07:11:45;;;;;;;11.40;7.25;;;;;;;42.18;11.38;100147.94;5117869;27;20057;-73
2022/07/02 07:14:10;;;;;;;10.40;7.93;;;;;;;42.69;10.59;100139.41;5117644;27;20038;-72
2022/07/02 07:16:35;;;;;;;28.10;12.48;;;;;;;43.04;9.92;100140.69;5099077;27;20429;-72
2022/07/02 07:21:25;;;;;;;13.95;7.72;;;;;;;43.53;9.75;100136.28;5103126;27;20493;-72
2022/07/02 07:23:49;;;;;;;13.15;7.35;;;;;;;43.72;9.84;100128.56;5090651;27;20042;-72
2022/07/02 07:26:15;;;;;;;7.68;6.85;;;;;;;44.03;9.63;100142.69;5079397;27;20046;-71
2022/07/02 07:28:40;;;;;;;10.60;6.88;;;;;;;44.26;9.48;100137.06;5061923;27;20184;-72
2022/07/02 07:31:05;;;;;;;9.35;7.68;;;;;;;44.42;8.84;100129.91;5096830;27;20146;-71
2022/07/02 07:33:29;;;;;;;10.10;7.25;;;;;;;44.63;8.77;100121.75;5096501;27;20039;-73
2022/07/02 07:35:54;;;;;;;9.05;8.13;;;;;;;44.81;8.68;100127.13;5077924;27;20091;-72
2022/07/02 07:38:19;;;;;;;9.02;7.97;;;;;;;45.10;8.49;100122.94;5095713;27;20039;-72
2022/07/02 07:40:44;;;;;;;9.00;8.18;;;;;;;45.32;8.64;100122.84;5095963;27;20039;-72
2022/07/02 07:43:09;;;;;;;9.60;7.65;;;;;;;45.72;8.59;100125.53;5080137;27;20035;-71
2022/07/02 07:45:34;;;;;;;10.20;9.18;;;;;;;46.57;7.98;100126.56;5081990;27;20126;-72
2022/07/02 07:47:59;;;;;;;11.07;10.00;;;;;;;47.55;7.19;100134.72;5065518;27;20450;-70
2022/07/02 07:50:24;;;;;;;10.63;9.63;;;;;;;48.17;6.73;100136.69;5097406;27;20454;-70
2022/07/02 07:52:48;;;;;;;10.82;9.85;;;;;;;48.57;6.42;100130.44;5097729;27;20050;-71
2022/07/02 07:55:14;;;;;;;10.43;9.20;;;;;;;48.95;6.12;100136.63;5118963;27;20047;-70
2022/07/02 07:57:39;;;;;;;13.43;12.10;;;;;;;49.51;6.50;100131.16;5083026;27;20035;-70
2022/07/02 08:00:05;;;;;;;19.55;11.40;;;;;;;49.63;6.19;100138.81;5119293;27;20103;-71
2022/07/02 08:02:37;;;;;;;15.45;12.43;;;;;;;49.43;5.81;100138.59;5118010;27;20042;-70
2022/07/02 08:05:02;;;;;;;13.35;12.20;;;;;;;49.33;6.29;100141.13;5118981;27;20065;-73
2022/07/02 08:07:28;;;;;;;13.52;10.90;;;;;;;49.30;6.21;100130.47;5120983;27;20504;-74
2022/07/02 08:09:54;;;;;;;13.15;12.15;;;;;;;49.49;5.94;100138.34;5102032;27;20851;-73
2022/07/02 08:12:20;;;;;;;13.50;12.43;;;;;;;49.29;5.82;100137.34;5117887;27;20061;-74
2022/07/02 08:14:45;;;;;;;13.25;12.25;;;;;;;49.27;5.90;100120.69;5116479;27;20063;-72
2022/07/02 08:17:09;;;;;;;12.85;11.57;;;;;;;49.47;6.24;100124.53;5116746;27;20046;-73
2022/07/02 08:19:34;;;;;;;12.93;11.75;;;;;;;49.77;5.61;100113.72;5118152;27;20106;-72
2022/07/02 08:21:59;;;;;;;15.55;14.35;;;;;;;50.46;5.94;100116.09;5084166;27;20099;-75
2022/07/02 08:24:24;;;;;;;18.13;16.58;;;;;;;50.81;5.41;100112.53;5100730;27;20038;-76
2022/07/02 08:26:49;;;;;;;16.50;15.20;;;;;;;50.99;5.58;100113.00;5100587;27;20091;-75
2022/07/02 08:29:14;;;;;;;18.20;16.83;;;;;;;51.18;5.24;100107.38;5118625;27;20121;-71
2022/07/02 08:31:39;;;;;;;18.40;16.85;;;;;;;51.01;4.91;100102.94;5118755;27;20093;-72
2022/07/02 08:34:04;;;;;;;16.23;14.98;;;;;;;50.43;5.54;100105.50;5100895;27;20038;-75
2022/07/02 08:36:29;;;;;;;17.35;15.70;;;;;;;50.19;5.35;100105.63;5100030;27;20045;-73
2022/07/02 08:38:54;;;;;;;16.30;14.95;;;;;;;50.31;5.77;100094.22;5101590;27;20042;-69
2022/07/02 08:41:19;;;;;;;15.27;13.85;;;;;;;50.33;5.05;100086.19;5101168;27;20043;-72
2022/07/02 08:43:45;;;;;;;21.27;19.65;;;;;;;50.51;5.24;100092.28;5119330;27;20039;-72
2022/07/02 08:46:12;;;;;;;18.08;16.85;;;;;;;50.94;5.12;100094.22;5100150;27;20045;-72
2022/07/02 08:48:39;;;;;;;19.90;18.60;;;;;;;51.31;5.34;100100.41;5119285;27;20046;-71
2022/07/02 08:51:03;;;;;;;20.73;19.00;;;;;;;51.40;4.97;100094.50;5119124;27;20034;-72
2022/07/02 08:53:28;;;;;;;20.08;18.85;;;;;;;51.72;5.03;100090.31;5118863;27;20046;-72
2022/07/02 08:55:55;;;;;;;23.27;21.77;;;;;;;52.11;4.80;100090.31;5100236;27;20042;-72
2022/07/02 08:58:21;;;;;;;21.33;19.88;;;;;;;52.26;4.12;100086.56;5101136;27;20050;-73
2022/07/02 09:00:47;;;;;;;22.67;21.17;;;;;;;52.49;4.12;100095.88;5118316;27;20059;-70
2022/07/02 09:03:14;;;;;;;24.00;22.70;;;;;;;52.67;3.89;100086.88;5118078;27;20081;-72
2022/07/02 09:05:42;;;;;;;23.67;22.10;;;;;;;53.06;4.15;100082.59;5117094;27;20083;-72
2022/07/02 09:08:07;;;;;;;29.48;27.42;;;;;;;53.17;4.14;100075.03;5121238;27;20042;-71
2022/07/02 09:10:33;;;;;;;27.52;25.85;;;;;;;53.40;3.97;100079.84;5097903;27;20129;-72
2022/07/02 09:12:59;;;;;;;28.92;27.05;;;;;;;53.66;3.72;100079.81;5097984;27;20047;-72
2022/07/02 09:15:25;;;;;;;31.73;29.85;;;;;;;53.85;3.72;100093.91;5119385;27;20409;-71
2022/07/02 09:17:50;;;;;;;31.90;29.70;;;;;;;54.05;3.58;100073.75;5118744;27;20134;-71
2022/07/02 09:20:15;;;;;;;34.03;32.22;;;;;;;54.16;3.51;100058.38;5083230;27;20062;-70
2022/07/02 09:22:44;;;;;;;44.85;41.90;;;;;;;54.48;3.59;100060.72;5099380;27;20149;-71
2022/07/02 09:25:16;;;;;;;33.75;32.03;;;;;;;54.54;3.75;100056.28;5118259;27;20086;-73
2022/07/02 09:27:41;;;;;;;41.40;38.97;;;;;;;54.15;3.69;100047.34;5118905;27;20046;-72
2022/07/02 09:30:08;;;;;;;39.13;36.78;;;;;;;54.31;3.77;100060.16;5120890;27;20066;-71
2022/07/02 09:32:41;;;;;;;35.67;33.75;;;;;;;54.92;3.68;100046.38;5104047;27;20422;-71
2022/07/02 09:35:07;;;;;;;37.80;35.53;;;;;;;54.67;3.54;100072.72;5123236;27;20044;-72
2022/07/02 09:37:32;;;;;;;45.67;42.78;;;;;;;54.76;3.37;100060.94;5120753;27;20050;-70
2022/07/02 09:40:00;;;;;;;37.50;35.60;;;;;;;54.78;3.14;100040.56;5118762;27;20043;-69
2022/07/02 09:42:31;;;;;;;38.45;36.25;;;;;;;54.62;3.72;100060.88;5119387;27;20050;-72
2022/07/02 09:44:56;;;;;;;45.13;42.63;;;;;;;54.55;3.58;100030.19;5101176;27;20039;-72
2022/07/02 09:47:37;;;;;;;44.95;42.63;;;;;;;55.34;3.68;100032.34;5100306;27;20034;-71
2022/07/02 09:50:05;;;;;;;;;;;;;;;57.01;3.16;100031.72;5105166;27;20049;-71
2022/07/02 09:52:30;;;;;;;47.08;44.58;;;;;;;55.85;2.69;100057.06;5122197;27;20074;-70
2022/07/02 09:54:55;;;;;;;48.40;46.03;;;;;;;55.91;2.95;100052.56;5119449;27;20053;-70
2022/07/02 09:57:20;;;;;;;51.15;48.70;;;;;;;56.09;2.97;100067.78;5119978;27;20368;-71
2022/07/02 09:59:45;;;;;;;51.42;48.28;;;;;;;56.25;2.83;100053.06;5102135;27;20125;-70
2022/07/02 10:02:26;;;;;;;53.15;50.58;;;;;;;57.24;2.52;100052.13;5122806;27;20038;-71
2022/07/02 10:04:52;;;;;;;59.35;56.65;;;;;;;56.31;2.41;100036.28;5101620;27;20404;-69
2022/07/02 10:07:22;;;;;;;48.92;46.60;;;;;;;55.66;2.75;100046.75;5100578;27;20050;-70
2022/07/02 10:09:48;;;;;;;56.45;53.55;;;;;;;55.48;2.65;99991.56;5119771;27;20039;-71
2022/07/02 10:12:15;;;;;;;53.28;50.30;;;;;;;55.65;2.92;100002.22;5104022;27;20054;-69
2022/07/02 10:14:42;;;;;;;49.50;46.92;;;;;;;55.99;3.20;100039.91;5123132;27;20527;-72
2022/07/02 10:17:10;;;;;;;58.00;55.25;;;;;;;56.54;2.59;100051.03;5085658;27;20042;-69
2022/07/02 10:19:34;;;;;;;56.55;53.80;;;;;;;56.84;2.66;100052.66;5102800;27;20087;-71
2022/07/02 10:22:02;;;;;;;64.72;61.78;;;;;;;57.09;2.47;100065.72;5102803;27;20046;-70
2022/07/02 10:24:27;;;;;;;69.45;66.13;;;;;;;57.25;2.45;100019.34;5085994;27;20035;-69
2022/07/02 10:26:56;;;;;;;69.80;66.47;;;;;;;57.50;2.30;100034.44;5119270;27;20133;-70
2022/07/02 10:29:21;;;;;;;77.32;73.90;;;;;;;57.53;2.21;100060.66;5122653;27;20030;-71
2022/07/02 10:31:52;;;;;;;75.32;71.85;;;;;;;57.65;2.26;100034.38;5086555;27;20091;-70
2022/07/02 10:34:42;;;;;;;74.97;71.40;;;;;;;58.30;2.46;100033.53;5101326;27;20485;-71
2022/07/02 10:37:07;;;;;;;62.03;58.70;;;;;;;54.72;3.08;99957.28;5117915;27;20053;-70
2022/07/02 10:39:39;;;;;;;39.20;37.15;;;;;;;51.36;4.44;99955.16;5101043;27;20506;-71
2022/07/02 10:42:04;;;;;;;26.40;24.45;;;;;;;47.28;6.45;99932.72;5118270;27;20070;-72
2022/07/02 10:44:39;;;;;;;17.25;15.52;;;;;;;44.62;6.89;99921.22;5100351;27;20069;-71
2022/07/02 10:47:04;;;;;;;10.73;9.73;;;;;;;41.72;8.53;99922.97;5118157;27;20134;-71
2022/07/02 10:49:28;;;;;;;9.88;9.13;;;;;;;39.47;9.74;99913.16;5099558;27;20088;-71
2022/07/02 10:51:59;;;;;;;9.48;8.43;;;;;;;37.92;11.27;99908.16;5117816;27;20050;-71
2022/07/02 10:54:31;;;;;;;10.82;6.70;;;;;;;36.58;11.86;99899.16;5118141;27;20035;-70
2022/07/02 10:56:56;;;;;;;8.23;6.35;;;;;;;35.10;12.52;99902.97;5099148;27;20052;-70
2022/07/02 10:59:22;;;;;;;15.38;7.07;;;;;;;34.08;14.47;99892.69;5118545;27;20121;-70
2022/07/02 11:01:47;;;;;;;6.63;5.47;;;;;;;33.22;13.92;99880.28;5099355;27;20038;-71
2022/07/02 11:04:20;;;;;;;7.22;5.35;;;;;;;32.65;14.54;99899.69;5118297;27;20050;-71
2022/07/02 11:06:45;;;;;;;6.97;5.13;;;;;;;31.66;15.50;99885.19;5117679;27;20039;-70
2022/07/02 11:09:10;;;;;;;8.43;4.70;;;;;;;31.02;16.19;99888.81;5117744;27;20067;-71
2022/07/02 11:11:35;;;;;;;7.80;4.40;;;;;;;30.41;16.30;99881.66;5117447;27;20545;-70
2022/07/02 11:14:01;;;;;;;5.80;4.43;;;;;;;29.96;17.22;99881.19;5117839;27;20031;-70
2022/07/02 11:16:26;;;;;;;8.48;5.20;;;;;;;29.61;18.78;99876.25;5101210;27;20055;-71
2022/07/02 11:18:52;;;;;;;6.82;5.30;;;;;;;29.32;18.09;99887.94;5102135;27;20065;-73
2022/07/02 11:21:19;;;;;;;5.53;4.47;;;;;;;29.04;18.55;99882.03;5099427;27;20046;-70